sensor_id;sensor_type;location;lat;lon;timestamp;temperature;humidity
13426;DHT22;6785;57.918;12.530;2024-03-08T00:00:33;-2.00;99.90
13426;DHT22;6785;57.918;12.530;2024-03-08T00:03:02;-2.00;99.90
13426;DHT22;6785;57.918;12.530;2024-03-08T00:05:30;-2.10;99.90
13426;DHT22;6785;57.918;12.530;2024-03-08T00:07:57;-2.10;99.90
13426;DHT22;6785;57.918;12.530;2024-03-08T00:10:25;-2.10;99.90
13426;DHT22;6785;57.918;12.530;2024-03-08T00:12:54;-2.10;99.90
13426;DHT22;6785;57.918;12.530;2024-03-08T00:15:21;-2.20;99.90
13426;DHT22;6785;57.918;12.530;2024-03-08T00:17:49;-2.10;99.90
13426;DHT22;6785;57.918;12.530;2024-03-08T00:20:19;-2.10;99.90
13426;DHT22;6785;57.918;12.530;2024-03-08T00:22:46;-2.10;99.90
13426;DHT22;6785;57.918;12.530;2024-03-08T00:25:13;-2.10;99.90
13426;DHT22;6785;57.918;12.530;2024-03-08T00:27:41;-2.10;99.90
13426;DHT22;6785;57.918;12.530;2024-03-08T00:30:09;-2.00;99.90
13426;DHT22;6785;57.918;12.530;2024-03-08T00:32:36;-2.00;99.90
13426;DHT22;6785;57.918;12.530;2024-03-08T00:35:04;-1.90;99.90
13426;DHT22;6785;57.918;12.530;2024-03-08T00:37:34;-1.90;99.90
13426;DHT22;6785;57.918;12.530;2024-03-08T00:40:01;-2.00;99.90
13426;DHT22;6785;57.918;12.530;2024-03-08T00:42:28;-2.00;99.90
13426;DHT22;6785;57.918;12.530;2024-03-08T00:44:55;-2.00;99.90
13426;DHT22;6785;57.918;12.530;2024-03-08T00:47:23;-2.00;99.90
13426;DHT22;6785;57.918;12.530;2024-03-08T00:49:50;-2.10;99.90
13426;DHT22;6785;57.918;12.530;2024-03-08T00:52:18;-2.10;99.90
13426;DHT22;6785;57.918;12.530;2024-03-08T00:54:47;-2.20;99.90
13426;DHT22;6785;57.918;12.530;2024-03-08T00:57:13;-2.20;99.90
13426;DHT22;6785;57.918;12.530;2024-03-08T00:59:40;-2.20;99.90
13426;DHT22;6785;57.918;12.530;2024-03-08T01:02:10;-2.20;99.90
13426;DHT22;6785;57.918;12.530;2024-03-08T01:04:37;-2.20;99.90
13426;DHT22;6785;57.918;12.530;2024-03-08T01:07:04;-2.20;99.90
13426;DHT22;6785;57.918;12.530;2024-03-08T01:09:31;-2.20;99.90
13426;DHT22;6785;57.918;12.530;2024-03-08T01:11:59;-2.10;99.90
13426;DHT22;6785;57.918;12.530;2024-03-08T01:14:27;-2.20;99.90
13426;DHT22;6785;57.918;12.530;2024-03-08T01:16:54;-2.10;99.90
13426;DHT22;6785;57.918;12.530;2024-03-08T01:19:22;-2.10;99.90
13426;DHT22;6785;57.918;12.530;2024-03-08T01:21:49;-2.20;99.90
13426;DHT22;6785;57.918;12.530;2024-03-08T01:24:16;-2.10;99.90
13426;DHT22;6785;57.918;12.530;2024-03-08T01:26:43;-2.10;99.90
13426;DHT22;6785;57.918;12.530;2024-03-08T01:29:12;-2.20;99.90
13426;DHT22;6785;57.918;12.530;2024-03-08T01:31:39;-2.20;99.90
13426;DHT22;6785;57.918;12.530;2024-03-08T01:34:06;-2.20;99.90
13426;DHT22;6785;57.918;12.530;2024-03-08T01:36:33;-2.20;99.90
13426;DHT22;6785;57.918;12.530;2024-03-08T01:39:00;-2.30;99.90
13426;DHT22;6785;57.918;12.530;2024-03-08T01:41:27;-2.30;99.90
13426;DHT22;6785;57.918;12.530;2024-03-08T01:43:55;-2.40;99.90
13426;DHT22;6785;57.918;12.530;2024-03-08T01:46:23;-2.40;99.90
13426;DHT22;6785;57.918;12.530;2024-03-08T01:48:50;-2.40;99.90
13426;DHT22;6785;57.918;12.530;2024-03-08T01:51:18;-2.50;99.90
13426;DHT22;6785;57.918;12.530;2024-03-08T01:53:46;-2.50;99.90
13426;DHT22;6785;57.918;12.530;2024-03-08T01:56:15;-2.50;99.90
13426;DHT22;6785;57.918;12.530;2024-03-08T01:58:42;-2.60;99.90
13426;DHT22;6785;57.918;12.530;2024-03-08T02:01:16;-2.60;99.90
13426;DHT22;6785;57.918;12.530;2024-03-08T02:03:47;-2.60;99.90
13426;DHT22;6785;57.918;12.530;2024-03-08T02:06:15;-2.70;99.90
13426;DHT22;6785;57.918;12.530;2024-03-08T02:08:43;-2.70;99.90
13426;DHT22;6785;57.918;12.530;2024-03-08T02:11:11;-2.80;99.90
13426;DHT22;6785;57.918;12.530;2024-03-08T02:13:38;-2.80;99.90
13426;DHT22;6785;57.918;12.530;2024-03-08T02:16:06;-2.80;99.90
13426;DHT22;6785;57.918;12.530;2024-03-08T02:18:33;-2.80;99.90
13426;DHT22;6785;57.918;12.530;2024-03-08T02:21:03;-2.90;99.90
13426;DHT22;6785;57.918;12.530;2024-03-08T02:23:30;-2.90;99.90
13426;DHT22;6785;57.918;12.530;2024-03-08T02:25:58;-3.00;99.90
13426;DHT22;6785;57.918;12.530;2024-03-08T02:28:25;-3.00;99.90
13426;DHT22;6785;57.918;12.530;2024-03-08T02:30:52;-3.00;99.90
13426;DHT22;6785;57.918;12.530;2024-03-08T02:33:21;-3.10;99.90
13426;DHT22;6785;57.918;12.530;2024-03-08T02:35:49;-3.10;99.90
13426;DHT22;6785;57.918;12.530;2024-03-08T02:38:18;-3.10;99.90
13426;DHT22;6785;57.918;12.530;2024-03-08T02:40:45;-3.10;99.90
13426;DHT22;6785;57.918;12.530;2024-03-08T02:43:13;-3.10;99.90
13426;DHT22;6785;57.918;12.530;2024-03-08T02:45:40;-3.10;99.90
13426;DHT22;6785;57.918;12.530;2024-03-08T02:48:09;-3.10;99.90
13426;DHT22;6785;57.918;12.530;2024-03-08T02:50:36;-3.10;99.90
13426;DHT22;6785;57.918;12.530;2024-03-08T02:53:05;-3.20;99.90
13426;DHT22;6785;57.918;12.530;2024-03-08T02:55:33;-3.20;99.90
13426;DHT22;6785;57.918;12.530;2024-03-08T02:58:01;-3.20;99.90
13426;DHT22;6785;57.918;12.530;2024-03-08T03:00:28;-3.10;99.90
13426;DHT22;6785;57.918;12.530;2024-03-08T03:02:56;-3.10;99.90
13426;DHT22;6785;57.918;12.530;2024-03-08T03:05:26;-3.10;99.90
13426;DHT22;6785;57.918;12.530;2024-03-08T03:07:53;-3.00;99.90
13426;DHT22;6785;57.918;12.530;2024-03-08T03:10:27;-3.00;99.90
13426;DHT22;6785;57.918;12.530;2024-03-08T03:12:55;-2.20;99.90
13426;DHT22;6785;57.918;12.530;2024-03-08T03:15:22;-2.90;99.90
13426;DHT22;6785;57.918;12.530;2024-03-08T03:17:49;-2.90;99.90
13426;DHT22;6785;57.918;12.530;2024-03-08T03:20:17;-2.90;99.90
13426;DHT22;6785;57.918;12.530;2024-03-08T03:22:48;-2.90;99.90
13426;DHT22;6785;57.918;12.530;2024-03-08T03:25:17;-2.90;99.90
13426;DHT22;6785;57.918;12.530;2024-03-08T03:27:49;-2.80;99.90
13426;DHT22;6785;57.918;12.530;2024-03-08T03:30:17;-2.90;99.90
13426;DHT22;6785;57.918;12.530;2024-03-08T03:32:47;-2.90;99.90
13426;DHT22;6785;57.918;12.530;2024-03-08T03:35:15;-2.90;99.90
13426;DHT22;6785;57.918;12.530;2024-03-08T03:37:42;-2.80;99.90
13426;DHT22;6785;57.918;12.530;2024-03-08T03:40:11;-2.80;99.90
13426;DHT22;6785;57.918;12.530;2024-03-08T03:42:39;-2.80;99.90
13426;DHT22;6785;57.918;12.530;2024-03-08T03:45:06;-2.80;99.90
13426;DHT22;6785;57.918;12.530;2024-03-08T03:47:36;-2.80;99.90
13426;DHT22;6785;57.918;12.530;2024-03-08T03:50:07;-2.80;99.90
13426;DHT22;6785;57.918;12.530;2024-03-08T03:52:35;-2.70;99.90
13426;DHT22;6785;57.918;12.530;2024-03-08T03:55:02;-2.70;99.90
13426;DHT22;6785;57.918;12.530;2024-03-08T03:57:29;-2.70;99.90
13426;DHT22;6785;57.918;12.530;2024-03-08T03:59:56;-2.80;99.90
13426;DHT22;6785;57.918;12.530;2024-03-08T04:02:24;-2.80;99.90
13426;DHT22;6785;57.918;12.530;2024-03-08T04:04:53;-2.80;99.90
13426;DHT22;6785;57.918;12.530;2024-03-08T04:07:21;-2.80;99.90
13426;DHT22;6785;57.918;12.530;2024-03-08T04:09:47;-2.80;99.90
13426;DHT22;6785;57.918;12.530;2024-03-08T04:12:14;-2.80;99.90
13426;DHT22;6785;57.918;12.530;2024-03-08T04:14:42;-2.80;99.90
13426;DHT22;6785;57.918;12.530;2024-03-08T04:17:09;-2.70;99.90
13426;DHT22;6785;57.918;12.530;2024-03-08T04:19:38;-2.80;99.90
13426;DHT22;6785;57.918;12.530;2024-03-08T04:22:07;-2.80;99.90
13426;DHT22;6785;57.918;12.530;2024-03-08T04:24:33;-2.80;99.90
13426;DHT22;6785;57.918;12.530;2024-03-08T04:27:00;-2.90;99.90
13426;DHT22;6785;57.918;12.530;2024-03-08T04:29:27;-2.90;99.90
13426;DHT22;6785;57.918;12.530;2024-03-08T04:31:54;-2.90;99.90
13426;DHT22;6785;57.918;12.530;2024-03-08T04:34:21;-2.80;99.90
13426;DHT22;6785;57.918;12.530;2024-03-08T04:36:48;-2.80;99.90
13426;DHT22;6785;57.918;12.530;2024-03-08T04:39:16;-2.90;99.90
13426;DHT22;6785;57.918;12.530;2024-03-08T04:41:44;-2.90;99.90
13426;DHT22;6785;57.918;12.530;2024-03-08T04:44:11;-2.90;99.90
13426;DHT22;6785;57.918;12.530;2024-03-08T04:46:39;-2.90;99.90
13426;DHT22;6785;57.918;12.530;2024-03-08T04:49:06;-3.00;99.90
13426;DHT22;6785;57.918;12.530;2024-03-08T04:51:33;-3.00;99.90
13426;DHT22;6785;57.918;12.530;2024-03-08T04:54:00;-2.90;99.90
13426;DHT22;6785;57.918;12.530;2024-03-08T04:56:28;-3.00;99.90
13426;DHT22;6785;57.918;12.530;2024-03-08T04:58:55;-3.00;99.90
13426;DHT22;6785;57.918;12.530;2024-03-08T05:01:21;-3.00;99.90
13426;DHT22;6785;57.918;12.530;2024-03-08T05:03:49;-3.00;99.90
13426;DHT22;6785;57.918;12.530;2024-03-08T05:06:19;-3.00;99.90
13426;DHT22;6785;57.918;12.530;2024-03-08T05:08:46;-3.10;99.90
13426;DHT22;6785;57.918;12.530;2024-03-08T05:11:14;-3.10;99.90
13426;DHT22;6785;57.918;12.530;2024-03-08T05:13:48;-3.20;99.90
13426;DHT22;6785;57.918;12.530;2024-03-08T05:16:15;-3.20;99.90
13426;DHT22;6785;57.918;12.530;2024-03-08T05:18:42;-3.30;99.90
13426;DHT22;6785;57.918;12.530;2024-03-08T05:21:12;-3.30;99.90
13426;DHT22;6785;57.918;12.530;2024-03-08T05:23:41;-3.30;99.90
13426;DHT22;6785;57.918;12.530;2024-03-08T05:26:08;-3.30;99.90
13426;DHT22;6785;57.918;12.530;2024-03-08T05:28:34;-3.30;99.90
13426;DHT22;6785;57.918;12.530;2024-03-08T05:31:03;-3.30;99.90
13426;DHT22;6785;57.918;12.530;2024-03-08T05:33:30;-3.30;99.90
13426;DHT22;6785;57.918;12.530;2024-03-08T05:35:57;-3.30;99.90
13426;DHT22;6785;57.918;12.530;2024-03-08T05:38:24;-3.50;99.90
13426;DHT22;6785;57.918;12.530;2024-03-08T05:40:51;-3.50;99.90
13426;DHT22;6785;57.918;12.530;2024-03-08T05:43:18;-3.50;99.90
13426;DHT22;6785;57.918;12.530;2024-03-08T05:45:45;-3.60;99.90
13426;DHT22;6785;57.918;12.530;2024-03-08T05:48:13;-3.60;99.90
13426;DHT22;6785;57.918;12.530;2024-03-08T05:50:41;-3.60;99.90
13426;DHT22;6785;57.918;12.530;2024-03-08T05:53:09;-3.50;99.90
13426;DHT22;6785;57.918;12.530;2024-03-08T05:55:38;-3.40;99.90
13426;DHT22;6785;57.918;12.530;2024-03-08T05:58:04;-3.40;99.90
13426;DHT22;6785;57.918;12.530;2024-03-08T06:00:33;-3.30;99.90
13426;DHT22;6785;57.918;12.530;2024-03-08T06:03:02;-3.30;99.90
13426;DHT22;6785;57.918;12.530;2024-03-08T06:05:30;-3.20;99.90
13426;DHT22;6785;57.918;12.530;2024-03-08T06:07:57;-3.20;99.90
13426;DHT22;6785;57.918;12.530;2024-03-08T06:10:24;-3.10;99.90
13426;DHT22;6785;57.918;12.530;2024-03-08T06:12:50;-3.10;99.90
13426;DHT22;6785;57.918;12.530;2024-03-08T06:15:17;-3.00;99.90
13426;DHT22;6785;57.918;12.530;2024-03-08T06:17:48;-3.00;99.90
13426;DHT22;6785;57.918;12.530;2024-03-08T06:20:14;-3.00;99.90
13426;DHT22;6785;57.918;12.530;2024-03-08T06:22:42;-2.90;99.90
13426;DHT22;6785;57.918;12.530;2024-03-08T06:25:10;-2.90;99.90
13426;DHT22;6785;57.918;12.530;2024-03-08T06:27:42;-2.90;99.90
13426;DHT22;6785;57.918;12.530;2024-03-08T06:30:12;-2.90;99.90
13426;DHT22;6785;57.918;12.530;2024-03-08T06:32:39;-2.90;99.90
13426;DHT22;6785;57.918;12.530;2024-03-08T06:35:06;-2.90;99.90
13426;DHT22;6785;57.918;12.530;2024-03-08T06:37:33;-2.80;99.90
13426;DHT22;6785;57.918;12.530;2024-03-08T06:40:04;-2.70;99.90
13426;DHT22;6785;57.918;12.530;2024-03-08T06:42:33;-2.70;99.90
13426;DHT22;6785;57.918;12.530;2024-03-08T06:45:00;-2.70;99.90
13426;DHT22;6785;57.918;12.530;2024-03-08T06:47:30;-2.70;99.90
13426;DHT22;6785;57.918;12.530;2024-03-08T06:49:57;-2.60;99.90
13426;DHT22;6785;57.918;12.530;2024-03-08T06:52:24;-2.50;99.90
13426;DHT22;6785;57.918;12.530;2024-03-08T06:54:52;-2.50;99.90
13426;DHT22;6785;57.918;12.530;2024-03-08T06:57:20;-2.50;99.90
13426;DHT22;6785;57.918;12.530;2024-03-08T06:59:49;-2.40;99.90
13426;DHT22;6785;57.918;12.530;2024-03-08T07:02:17;-2.30;99.90
13426;DHT22;6785;57.918;12.530;2024-03-08T07:04:44;-2.30;99.90
13426;DHT22;6785;57.918;12.530;2024-03-08T07:07:11;-2.20;99.90
13426;DHT22;6785;57.918;12.530;2024-03-08T07:09:38;-2.10;99.90
13426;DHT22;6785;57.918;12.530;2024-03-08T07:12:05;-2.00;99.90
13426;DHT22;6785;57.918;12.530;2024-03-08T07:14:33;-2.00;99.90
13426;DHT22;6785;57.918;12.530;2024-03-08T07:17:00;-2.00;99.90
13426;DHT22;6785;57.918;12.530;2024-03-08T07:19:27;-1.90;99.90
13426;DHT22;6785;57.918;12.530;2024-03-08T07:21:54;-1.90;99.90
13426;DHT22;6785;57.918;12.530;2024-03-08T07:24:21;-1.80;99.90
13426;DHT22;6785;57.918;12.530;2024-03-08T07:27:05;-1.70;99.90
13426;DHT22;6785;57.918;12.530;2024-03-08T07:29:33;-1.60;99.90
13426;DHT22;6785;57.918;12.530;2024-03-08T07:32:00;-1.40;99.90
13426;DHT22;6785;57.918;12.530;2024-03-08T07:34:38;-1.30;99.90
13426;DHT22;6785;57.918;12.530;2024-03-08T07:37:05;-1.00;99.90
13426;DHT22;6785;57.918;12.530;2024-03-08T07:39:36;-0.80;99.90
13426;DHT22;6785;57.918;12.530;2024-03-08T07:42:03;-0.50;99.90
13426;DHT22;6785;57.918;12.530;2024-03-08T07:44:30;-0.30;99.90
13426;DHT22;6785;57.918;12.530;2024-03-08T07:46:59;-0.20;99.90
13426;DHT22;6785;57.918;12.530;2024-03-08T07:49:26;0.00;99.90
13426;DHT22;6785;57.918;12.530;2024-03-08T07:51:52;0.10;99.90
13426;DHT22;6785;57.918;12.530;2024-03-08T07:54:19;0.30;99.90
13426;DHT22;6785;57.918;12.530;2024-03-08T07:56:46;0.40;99.90
13426;DHT22;6785;57.918;12.530;2024-03-08T07:59:13;0.50;99.90
13426;DHT22;6785;57.918;12.530;2024-03-08T08:01:40;0.60;99.90
13426;DHT22;6785;57.918;12.530;2024-03-08T08:04:08;0.60;99.90
13426;DHT22;6785;57.918;12.530;2024-03-08T08:06:38;0.60;99.90
13426;DHT22;6785;57.918;12.530;2024-03-08T08:09:07;0.80;99.90
13426;DHT22;6785;57.918;12.530;2024-03-08T08:11:39;0.90;99.90
13426;DHT22;6785;57.918;12.530;2024-03-08T08:14:09;1.00;99.90
13426;DHT22;6785;57.918;12.530;2024-03-08T08:16:36;0.90;99.90
13426;DHT22;6785;57.918;12.530;2024-03-08T08:19:05;1.10;99.90
13426;DHT22;6785;57.918;12.530;2024-03-08T08:21:42;1.00;99.90
13426;DHT22;6785;57.918;12.530;2024-03-08T08:24:10;1.10;99.90
13426;DHT22;6785;57.918;12.530;2024-03-08T08:26:37;1.20;99.90
13426;DHT22;6785;57.918;12.530;2024-03-08T08:29:04;1.30;99.90
13426;DHT22;6785;57.918;12.530;2024-03-08T08:31:32;1.40;99.90
13426;DHT22;6785;57.918;12.530;2024-03-08T08:33:59;1.50;99.90
13426;DHT22;6785;57.918;12.530;2024-03-08T08:36:26;1.60;99.90
13426;DHT22;6785;57.918;12.530;2024-03-08T08:38:56;1.60;99.90
13426;DHT22;6785;57.918;12.530;2024-03-08T08:41:24;1.50;99.90
13426;DHT22;6785;57.918;12.530;2024-03-08T08:43:50;1.40;99.90
13426;DHT22;6785;57.918;12.530;2024-03-08T08:46:17;1.40;99.90
13426;DHT22;6785;57.918;12.530;2024-03-08T08:48:44;1.40;99.90
13426;DHT22;6785;57.918;12.530;2024-03-08T08:51:12;1.50;99.90
13426;DHT22;6785;57.918;12.530;2024-03-08T08:53:39;1.60;99.90
13426;DHT22;6785;57.918;12.530;2024-03-08T08:56:09;1.70;99.90
13426;DHT22;6785;57.918;12.530;2024-03-08T08:58:38;1.70;99.90
13426;DHT22;6785;57.918;12.530;2024-03-08T09:01:05;1.90;99.90
13426;DHT22;6785;57.918;12.530;2024-03-08T09:03:33;2.00;99.90
13426;DHT22;6785;57.918;12.530;2024-03-08T09:06:02;2.10;99.90
13426;DHT22;6785;57.918;12.530;2024-03-08T09:08:29;2.00;99.90
13426;DHT22;6785;57.918;12.530;2024-03-08T09:10:59;2.00;99.90
13426;DHT22;6785;57.918;12.530;2024-03-08T09:13:27;2.00;99.90
13426;DHT22;6785;57.918;12.530;2024-03-08T09:15:54;2.10;99.90
13426;DHT22;6785;57.918;12.530;2024-03-08T09:18:24;2.10;99.90
13426;DHT22;6785;57.918;12.530;2024-03-08T09:20:50;2.30;99.90
13426;DHT22;6785;57.918;12.530;2024-03-08T09:23:19;2.30;99.90
13426;DHT22;6785;57.918;12.530;2024-03-08T09:25:46;2.50;99.90
13426;DHT22;6785;57.918;12.530;2024-03-08T09:28:13;2.60;99.90
13426;DHT22;6785;57.918;12.530;2024-03-08T09:30:41;2.60;99.90
13426;DHT22;6785;57.918;12.530;2024-03-08T09:33:08;2.70;99.90
13426;DHT22;6785;57.918;12.530;2024-03-08T09:35:35;2.70;99.90
13426;DHT22;6785;57.918;12.530;2024-03-08T09:38:02;2.80;99.90
13426;DHT22;6785;57.918;12.530;2024-03-08T09:40:30;2.90;99.90
13426;DHT22;6785;57.918;12.530;2024-03-08T09:42:57;2.90;99.90
13426;DHT22;6785;57.918;12.530;2024-03-08T09:45:26;2.90;99.90
13426;DHT22;6785;57.918;12.530;2024-03-08T09:47:58;2.90;99.90
13426;DHT22;6785;57.918;12.530;2024-03-08T09:50:25;3.00;99.90
13426;DHT22;6785;57.918;12.530;2024-03-08T09:52:53;3.10;99.90
13426;DHT22;6785;57.918;12.530;2024-03-08T09:55:27;3.20;99.90
13426;DHT22;6785;57.918;12.530;2024-03-08T09:58:00;3.40;99.90
13426;DHT22;6785;57.918;12.530;2024-03-08T10:01:03;3.40;99.90
13426;DHT22;6785;57.918;12.530;2024-03-08T10:03:33;3.50;99.90
13426;DHT22;6785;57.918;12.530;2024-03-08T10:06:00;3.70;99.90
13426;DHT22;6785;57.918;12.530;2024-03-08T10:08:27;3.80;99.90
13426;DHT22;6785;57.918;12.530;2024-03-08T10:10:55;3.90;99.90
13426;DHT22;6785;57.918;12.530;2024-03-08T10:13:25;4.00;99.90
13426;DHT22;6785;57.918;12.530;2024-03-08T10:15:52;4.10;99.90
13426;DHT22;6785;57.918;12.530;2024-03-08T10:18:19;4.20;99.90
13426;DHT22;6785;57.918;12.530;2024-03-08T10:21:02;4.30;99.90
13426;DHT22;6785;57.918;12.530;2024-03-08T10:23:30;4.40;99.90
13426;DHT22;6785;57.918;12.530;2024-03-08T10:25:57;4.40;99.90
13426;DHT22;6785;57.918;12.530;2024-03-08T10:28:24;4.50;99.90
13426;DHT22;6785;57.918;12.530;2024-03-08T10:30:51;4.50;99.90
13426;DHT22;6785;57.918;12.530;2024-03-08T10:33:18;4.60;99.90
13426;DHT22;6785;57.918;12.530;2024-03-08T10:35:44;4.70;99.90
13426;DHT22;6785;57.918;12.530;2024-03-08T10:38:15;4.80;99.90
13426;DHT22;6785;57.918;12.530;2024-03-08T10:40:46;4.90;99.90
13426;DHT22;6785;57.918;12.530;2024-03-08T10:43:22;5.00;99.90
13426;DHT22;6785;57.918;12.530;2024-03-08T10:45:54;5.00;99.90
13426;DHT22;6785;57.918;12.530;2024-03-08T10:48:28;5.20;99.90
13426;DHT22;6785;57.918;12.530;2024-03-08T10:50:58;5.30;99.90
13426;DHT22;6785;57.918;12.530;2024-03-08T10:53:28;5.50;99.90
13426;DHT22;6785;57.918;12.530;2024-03-08T10:55:56;5.50;99.90
13426;DHT22;6785;57.918;12.530;2024-03-08T10:58:24;5.70;99.90
13426;DHT22;6785;57.918;12.530;2024-03-08T11:00:52;5.70;99.90
13426;DHT22;6785;57.918;12.530;2024-03-08T11:03:45;5.80;99.90
13426;DHT22;6785;57.918;12.530;2024-03-08T11:06:15;5.80;99.90
13426;DHT22;6785;57.918;12.530;2024-03-08T11:08:44;6.00;99.90
13426;DHT22;6785;57.918;12.530;2024-03-08T11:11:24;6.30;99.90
13426;DHT22;6785;57.918;12.530;2024-03-08T11:13:56;6.20;99.90
13426;DHT22;6785;57.918;12.530;2024-03-08T11:16:47;6.30;99.90
13426;DHT22;6785;57.918;12.530;2024-03-08T11:19:25;6.30;99.90
13426;DHT22;6785;57.918;12.530;2024-03-08T11:21:58;6.40;99.90
13426;DHT22;6785;57.918;12.530;2024-03-08T11:24:26;6.50;99.90
13426;DHT22;6785;57.918;12.530;2024-03-08T11:26:57;6.50;99.90
13426;DHT22;6785;57.918;12.530;2024-03-08T11:29:35;6.60;99.90
13426;DHT22;6785;57.918;12.530;2024-03-08T11:32:07;6.90;99.90
13426;DHT22;6785;57.918;12.530;2024-03-08T11:34:35;6.90;99.90
13426;DHT22;6785;57.918;12.530;2024-03-08T11:37:04;6.90;99.90
13426;DHT22;6785;57.918;12.530;2024-03-08T11:39:33;7.10;99.90
13426;DHT22;6785;57.918;12.530;2024-03-08T11:42:02;7.00;99.90
13426;DHT22;6785;57.918;12.530;2024-03-08T11:44:30;7.10;99.90
13426;DHT22;6785;57.918;12.530;2024-03-08T11:46:57;7.10;99.90
13426;DHT22;6785;57.918;12.530;2024-03-08T11:49:24;7.20;99.90
13426;DHT22;6785;57.918;12.530;2024-03-08T11:51:53;7.30;99.90
13426;DHT22;6785;57.918;12.530;2024-03-08T11:54:21;7.40;99.90
13426;DHT22;6785;57.918;12.530;2024-03-08T11:56:51;7.50;99.90
13426;DHT22;6785;57.918;12.530;2024-03-08T11:59:19;7.60;99.90
13426;DHT22;6785;57.918;12.530;2024-03-08T12:02:00;7.60;99.90
13426;DHT22;6785;57.918;12.530;2024-03-08T12:04:30;7.70;99.90
13426;DHT22;6785;57.918;12.530;2024-03-08T12:06:59;7.70;99.90
13426;DHT22;6785;57.918;12.530;2024-03-08T12:09:27;7.70;99.90
13426;DHT22;6785;57.918;12.530;2024-03-08T12:11:57;7.70;99.90
13426;DHT22;6785;57.918;12.530;2024-03-08T12:14:24;7.80;99.90
13426;DHT22;6785;57.918;12.530;2024-03-08T12:16:51;7.80;99.90
13426;DHT22;6785;57.918;12.530;2024-03-08T12:19:19;7.90;99.90
13426;DHT22;6785;57.918;12.530;2024-03-08T12:21:46;7.90;99.90
13426;DHT22;6785;57.918;12.530;2024-03-08T12:24:19;8.00;99.90
13426;DHT22;6785;57.918;12.530;2024-03-08T12:26:47;8.00;99.90
13426;DHT22;6785;57.918;12.530;2024-03-08T12:29:20;8.10;99.90
13426;DHT22;6785;57.918;12.530;2024-03-08T12:31:52;8.00;99.90
13426;DHT22;6785;57.918;12.530;2024-03-08T12:34:20;8.10;99.90
13426;DHT22;6785;57.918;12.530;2024-03-08T12:36:47;8.10;99.90
13426;DHT22;6785;57.918;12.530;2024-03-08T12:39:18;8.10;99.90
13426;DHT22;6785;57.918;12.530;2024-03-08T12:41:48;8.20;99.90
13426;DHT22;6785;57.918;12.530;2024-03-08T12:44:18;8.20;99.90
13426;DHT22;6785;57.918;12.530;2024-03-08T12:46:47;8.20;99.90
13426;DHT22;6785;57.918;12.530;2024-03-08T12:49:14;8.30;99.90
13426;DHT22;6785;57.918;12.530;2024-03-08T12:51:43;8.20;99.90
13426;DHT22;6785;57.918;12.530;2024-03-08T12:54:11;8.20;99.90
13426;DHT22;6785;57.918;12.530;2024-03-08T12:56:37;8.30;99.90
13426;DHT22;6785;57.918;12.530;2024-03-08T12:59:05;8.30;99.90
13426;DHT22;6785;57.918;12.530;2024-03-08T13:01:34;8.30;99.90
13426;DHT22;6785;57.918;12.530;2024-03-08T13:04:03;8.40;99.90
13426;DHT22;6785;57.918;12.530;2024-03-08T13:06:31;8.30;99.90
13426;DHT22;6785;57.918;12.530;2024-03-08T13:08:58;8.10;99.90
13426;DHT22;6785;57.918;12.530;2024-03-08T13:11:32;8.20;99.90
13426;DHT22;6785;57.918;12.530;2024-03-08T13:14:02;8.20;99.90
13426;DHT22;6785;57.918;12.530;2024-03-08T13:16:30;8.20;99.90
13426;DHT22;6785;57.918;12.530;2024-03-08T13:18:58;8.20;99.90
13426;DHT22;6785;57.918;12.530;2024-03-08T13:21:27;8.30;99.90
13426;DHT22;6785;57.918;12.530;2024-03-08T13:23:55;8.40;99.90
13426;DHT22;6785;57.918;12.530;2024-03-08T13:26:24;8.40;99.90
13426;DHT22;6785;57.918;12.530;2024-03-08T13:28:55;8.30;99.90
13426;DHT22;6785;57.918;12.530;2024-03-08T13:31:23;8.20;99.90
13426;DHT22;6785;57.918;12.530;2024-03-08T13:33:50;8.10;99.90
13426;DHT22;6785;57.918;12.530;2024-03-08T13:36:25;8.00;99.90
13426;DHT22;6785;57.918;12.530;2024-03-08T13:38:55;7.90;99.90
13426;DHT22;6785;57.918;12.530;2024-03-08T13:41:26;8.00;99.90
13426;DHT22;6785;57.918;12.530;2024-03-08T13:43:53;7.90;99.90
13426;DHT22;6785;57.918;12.530;2024-03-08T13:46:21;8.00;99.90
13426;DHT22;6785;57.918;12.530;2024-03-08T13:48:50;8.20;99.90
13426;DHT22;6785;57.918;12.530;2024-03-08T13:51:16;8.00;99.90
13426;DHT22;6785;57.918;12.530;2024-03-08T13:53:45;8.00;99.90
13426;DHT22;6785;57.918;12.530;2024-03-08T13:56:11;8.00;99.90
13426;DHT22;6785;57.918;12.530;2024-03-08T13:58:40;7.90;99.90
13426;DHT22;6785;57.918;12.530;2024-03-08T14:01:09;7.90;99.90
13426;DHT22;6785;57.918;12.530;2024-03-08T14:03:38;7.90;99.90
13426;DHT22;6785;57.918;12.530;2024-03-08T14:06:07;7.90;99.90
13426;DHT22;6785;57.918;12.530;2024-03-08T14:08:36;8.00;99.90
13426;DHT22;6785;57.918;12.530;2024-03-08T14:11:05;8.00;99.90
13426;DHT22;6785;57.918;12.530;2024-03-08T14:13:42;8.00;99.90
13426;DHT22;6785;57.918;12.530;2024-03-08T14:16:11;7.90;99.90
13426;DHT22;6785;57.918;12.530;2024-03-08T14:18:38;7.90;99.90
13426;DHT22;6785;57.918;12.530;2024-03-08T14:21:05;7.90;99.90
13426;DHT22;6785;57.918;12.530;2024-03-08T14:23:33;7.80;99.90
13426;DHT22;6785;57.918;12.530;2024-03-08T14:26:01;7.80;99.90
13426;DHT22;6785;57.918;12.530;2024-03-08T14:28:29;7.80;99.90
13426;DHT22;6785;57.918;12.530;2024-03-08T14:30:57;7.80;99.90
13426;DHT22;6785;57.918;12.530;2024-03-08T14:33:28;7.80;99.90
13426;DHT22;6785;57.918;12.530;2024-03-08T14:35:54;7.80;99.90
13426;DHT22;6785;57.918;12.530;2024-03-08T14:38:24;7.80;99.90
13426;DHT22;6785;57.918;12.530;2024-03-08T14:40:52;8.00;99.90
13426;DHT22;6785;57.918;12.530;2024-03-08T14:43:20;7.80;99.90
13426;DHT22;6785;57.918;12.530;2024-03-08T14:45:49;7.70;99.90
13426;DHT22;6785;57.918;12.530;2024-03-08T14:48:18;7.70;99.90
13426;DHT22;6785;57.918;12.530;2024-03-08T14:50:45;7.70;99.90
13426;DHT22;6785;57.918;12.530;2024-03-08T14:53:12;7.80;99.90
13426;DHT22;6785;57.918;12.530;2024-03-08T14:55:41;7.70;99.90
13426;DHT22;6785;57.918;12.530;2024-03-08T14:58:09;7.80;99.90
13426;DHT22;6785;57.918;12.530;2024-03-08T15:00:36;7.60;99.90
13426;DHT22;6785;57.918;12.530;2024-03-08T15:03:06;7.60;99.90
13426;DHT22;6785;57.918;12.530;2024-03-08T15:05:37;7.60;99.90
13426;DHT22;6785;57.918;12.530;2024-03-08T15:08:07;7.60;99.90
13426;DHT22;6785;57.918;12.530;2024-03-08T15:10:45;7.70;99.90
13426;DHT22;6785;57.918;12.530;2024-03-08T15:13:12;7.60;99.90
13426;DHT22;6785;57.918;12.530;2024-03-08T15:15:46;7.60;99.90
13426;DHT22;6785;57.918;12.530;2024-03-08T15:18:22;7.50;99.90
13426;DHT22;6785;57.918;12.530;2024-03-08T15:20:51;7.40;99.90
13426;DHT22;6785;57.918;12.530;2024-03-08T15:23:20;7.40;99.90
13426;DHT22;6785;57.918;12.530;2024-03-08T15:25:47;7.40;99.90
13426;DHT22;6785;57.918;12.530;2024-03-08T15:28:14;7.30;99.90
13426;DHT22;6785;57.918;12.530;2024-03-08T15:30:43;7.30;99.90
13426;DHT22;6785;57.918;12.530;2024-03-08T15:33:12;7.30;99.90
13426;DHT22;6785;57.918;12.530;2024-03-08T15:35:42;7.80;99.90
13426;DHT22;6785;57.918;12.530;2024-03-08T15:38:14;7.20;99.90
13426;DHT22;6785;57.918;12.530;2024-03-08T15:40:41;7.10;99.90
13426;DHT22;6785;57.918;12.530;2024-03-08T15:43:08;7.30;99.90
13426;DHT22;6785;57.918;12.530;2024-03-08T15:45:36;7.00;99.90